sensor_id;sensor_type;location;lat;lon;timestamp;P1;durP1;ratioP1;P2;durP2;ratioP2
15063;SDS011;7631;52.088;5.088;2023-01-06T00:02:10;3.87;;;2.30;;
15063;SDS011;7631;52.088;5.088;2023-01-06T00:04:35;4.07;;;2.37;;
15063;SDS011;7631;52.088;5.088;2023-01-06T00:07:00;4.17;;;2.30;;
15063;SDS011;7631;52.088;5.088;2023-01-06T00:09:25;5.10;;;2.03;;
15063;SDS011;7631;52.088;5.088;2023-01-06T00:11:50;4.53;;;2.10;;
15063;SDS011;7631;52.088;5.088;2023-01-06T00:14:16;3.13;;;2.33;;
15063;SDS011;7631;52.088;5.088;2023-01-06T00:16:41;4.13;;;2.23;;
15063;SDS011;7631;52.088;5.088;2023-01-06T00:19:06;3.27;;;1.90;;
15063;SDS011;7631;52.088;5.088;2023-01-06T00:21:33;3.70;;;2.23;;
15063;SDS011;7631;52.088;5.088;2023-01-06T00:23:59;3.13;;;1.77;;
15063;SDS011;7631;52.088;5.088;2023-01-06T00:26:24;2.60;;;1.93;;
15063;SDS011;7631;52.088;5.088;2023-01-06T00:28:53;2.60;;;1.90;;
15063;SDS011;7631;52.088;5.088;2023-01-06T00:31:19;3.97;;;2.00;;
15063;SDS011;7631;52.088;5.088;2023-01-06T00:33:44;3.20;;;1.73;;
15063;SDS011;7631;52.088;5.088;2023-01-06T00:36:10;2.27;;;1.90;;
15063;SDS011;7631;52.088;5.088;2023-01-06T00:38:36;3.27;;;1.97;;
15063;SDS011;7631;52.088;5.088;2023-01-06T00:41:09;3.10;;;1.70;;
15063;SDS011;7631;52.088;5.088;2023-01-06T00:43:53;2.47;;;1.77;;
15063;SDS011;7631;52.088;5.088;2023-01-06T00:46:19;3.13;;;1.70;;
15063;SDS011;7631;52.088;5.088;2023-01-06T00:48:44;3.53;;;1.83;;
15063;SDS011;7631;52.088;5.088;2023-01-06T00:51:09;2.37;;;1.80;;
15063;SDS011;7631;52.088;5.088;2023-01-06T00:53:34;3.07;;;1.90;;
15063;SDS011;7631;52.088;5.088;2023-01-06T00:56:00;2.60;;;1.70;;
15063;SDS011;7631;52.088;5.088;2023-01-06T00:58:29;2.13;;;1.97;;
15063;SDS011;7631;52.088;5.088;2023-01-06T01:00:55;2.27;;;1.70;;
15063;SDS011;7631;52.088;5.088;2023-01-06T01:03:20;3.77;;;1.70;;
15063;SDS011;7631;52.088;5.088;2023-01-06T01:05:46;3.30;;;1.87;;
15063;SDS011;7631;52.088;5.088;2023-01-06T01:08:11;3.87;;;2.03;;
15063;SDS011;7631;52.088;5.088;2023-01-06T01:10:36;3.07;;;1.80;;
15063;SDS011;7631;52.088;5.088;2023-01-06T01:13:01;2.23;;;1.40;;
15063;SDS011;7631;52.088;5.088;2023-01-06T01:15:26;3.97;;;2.07;;
15063;SDS011;7631;52.088;5.088;2023-01-06T01:17:52;2.73;;;1.73;;
15063;SDS011;7631;52.088;5.088;2023-01-06T01:20:17;3.10;;;2.07;;
15063;SDS011;7631;52.088;5.088;2023-01-06T01:22:42;2.37;;;2.03;;
15063;SDS011;7631;52.088;5.088;2023-01-06T01:25:07;3.67;;;2.10;;
15063;SDS011;7631;52.088;5.088;2023-01-06T01:27:33;3.53;;;1.80;;
15063;SDS011;7631;52.088;5.088;2023-01-06T01:29:58;3.77;;;2.03;;
15063;SDS011;7631;52.088;5.088;2023-01-06T01:32:23;2.50;;;1.83;;
15063;SDS011;7631;52.088;5.088;2023-01-06T01:34:48;3.33;;;2.10;;
15063;SDS011;7631;52.088;5.088;2023-01-06T01:37:13;3.60;;;1.80;;
15063;SDS011;7631;52.088;5.088;2023-01-06T01:39:39;2.50;;;1.90;;
15063;SDS011;7631;52.088;5.088;2023-01-06T01:42:05;2.20;;;1.73;;
15063;SDS011;7631;52.088;5.088;2023-01-06T01:47:16;2.60;;;1.83;;
15063;SDS011;7631;52.088;5.088;2023-01-06T01:49:42;3.20;;;1.83;;
15063;SDS011;7631;52.088;5.088;2023-01-06T01:52:08;2.50;;;2.03;;
15063;SDS011;7631;52.088;5.088;2023-01-06T01:54:34;2.57;;;1.80;;
15063;SDS011;7631;52.088;5.088;2023-01-06T01:57:03;3.07;;;1.83;;
15063;SDS011;7631;52.088;5.088;2023-01-06T01:59:30;2.37;;;1.60;;
15063;SDS011;7631;52.088;5.088;2023-01-06T02:01:56;2.90;;;1.90;;
15063;SDS011;7631;52.088;5.088;2023-01-06T02:04:21;3.03;;;2.17;;
15063;SDS011;7631;52.088;5.088;2023-01-06T02:06:48;2.33;;;1.80;;
15063;SDS011;7631;52.088;5.088;2023-01-06T02:11:46;3.33;;;1.77;;
15063;SDS011;7631;52.088;5.088;2023-01-06T02:14:17;2.60;;;1.97;;
15063;SDS011;7631;52.088;5.088;2023-01-06T02:19:17;2.30;;;1.90;;
15063;SDS011;7631;52.088;5.088;2023-01-06T02:24:36;3.30;;;2.00;;
15063;SDS011;7631;52.088;5.088;2023-01-06T02:37:42;2.37;;;1.80;;
15063;SDS011;7631;52.088;5.088;2023-01-06T02:47:30;2.47;;;2.00;;
15063;SDS011;7631;52.088;5.088;2023-01-06T02:50:19;4.03;;;1.93;;
15063;SDS011;7631;52.088;5.088;2023-01-06T02:53:46;1.90;;;1.67;;
15063;SDS011;7631;52.088;5.088;2023-01-06T02:55:58;3.20;;;1.80;;
15063;SDS011;7631;52.088;5.088;2023-01-06T02:58:25;2.70;;;1.80;;
15063;SDS011;7631;52.088;5.088;2023-01-06T03:00:55;2.50;;;1.60;;
15063;SDS011;7631;52.088;5.088;2023-01-06T03:03:22;3.07;;;1.60;;
15063;SDS011;7631;52.088;5.088;2023-01-06T03:05:50;2.17;;;1.50;;
15063;SDS011;7631;52.088;5.088;2023-01-06T03:08:17;2.87;;;1.70;;
15063;SDS011;7631;52.088;5.088;2023-01-06T03:10:43;2.87;;;1.73;;
15063;SDS011;7631;52.088;5.088;2023-01-06T03:13:21;2.30;;;1.53;;
15063;SDS011;7631;52.088;5.088;2023-01-06T03:15:48;3.57;;;1.60;;
15063;SDS011;7631;52.088;5.088;2023-01-06T03:18:13;2.57;;;2.00;;
15063;SDS011;7631;52.088;5.088;2023-01-06T03:20:38;1.70;;;1.43;;
15063;SDS011;7631;52.088;5.088;2023-01-06T03:23:04;2.20;;;1.57;;
15063;SDS011;7631;52.088;5.088;2023-01-06T03:25:30;3.07;;;1.73;;
15063;SDS011;7631;52.088;5.088;2023-01-06T03:27:55;1.80;;;1.50;;
15063;SDS011;7631;52.088;5.088;2023-01-06T03:30:20;2.40;;;1.50;;
15063;SDS011;7631;52.088;5.088;2023-01-06T03:32:54;1.97;;;1.30;;
15063;SDS011;7631;52.088;5.088;2023-01-06T03:40:41;2.67;;;1.30;;
15063;SDS011;7631;52.088;5.088;2023-01-06T03:43:17;2.90;;;1.47;;
15063;SDS011;7631;52.088;5.088;2023-01-06T03:48:21;2.03;;;1.43;;
15063;SDS011;7631;52.088;5.088;2023-01-06T03:51:08;1.97;;;1.50;;
15063;SDS011;7631;52.088;5.088;2023-01-06T03:53:56;2.13;;;1.30;;
15063;SDS011;7631;52.088;5.088;2023-01-06T03:56:32;2.57;;;1.43;;
15063;SDS011;7631;52.088;5.088;2023-01-06T03:59:01;2.40;;;1.67;;
15063;SDS011;7631;52.088;5.088;2023-01-06T04:01:28;1.67;;;1.37;;
15063;SDS011;7631;52.088;5.088;2023-01-06T04:03:53;1.93;;;1.30;;
15063;SDS011;7631;52.088;5.088;2023-01-06T04:06:19;2.10;;;1.47;;
15063;SDS011;7631;52.088;5.088;2023-01-06T04:08:44;1.30;;;1.20;;
15063;SDS011;7631;52.088;5.088;2023-01-06T04:11:09;2.00;;;1.50;;
15063;SDS011;7631;52.088;5.088;2023-01-06T04:13:58;2.37;;;1.60;;
15063;SDS011;7631;52.088;5.088;2023-01-06T04:16:23;2.17;;;1.40;;
15063;SDS011;7631;52.088;5.088;2023-01-06T04:18:49;3.27;;;1.30;;
15063;SDS011;7631;52.088;5.088;2023-01-06T04:21:14;1.30;;;1.20;;
15063;SDS011;7631;52.088;5.088;2023-01-06T04:23:39;2.07;;;1.40;;
15063;SDS011;7631;52.088;5.088;2023-01-06T04:26:05;1.93;;;1.20;;
15063;SDS011;7631;52.088;5.088;2023-01-06T04:28:30;2.33;;;1.50;;
15063;SDS011;7631;52.088;5.088;2023-01-06T04:30:59;2.13;;;1.23;;
15063;SDS011;7631;52.088;5.088;2023-01-06T04:33:24;1.40;;;1.10;;
15063;SDS011;7631;52.088;5.088;2023-01-06T04:35:49;1.90;;;1.40;;
15063;SDS011;7631;52.088;5.088;2023-01-06T04:38:14;1.67;;;1.33;;
15063;SDS011;7631;52.088;5.088;2023-01-06T04:40:43;2.17;;;1.10;;
15063;SDS011;7631;52.088;5.088;2023-01-06T04:43:08;2.23;;;1.20;;
15063;SDS011;7631;52.088;5.088;2023-01-06T04:45:38;1.60;;;1.33;;
15063;SDS011;7631;52.088;5.088;2023-01-06T04:48:03;1.97;;;1.30;;
15063;SDS011;7631;52.088;5.088;2023-01-06T04:50:29;1.20;;;1.00;;
15063;SDS011;7631;52.088;5.088;2023-01-06T04:52:54;1.60;;;1.40;;
15063;SDS011;7631;52.088;5.088;2023-01-06T04:55:19;1.67;;;1.30;;
15063;SDS011;7631;52.088;5.088;2023-01-06T04:57:45;2.07;;;1.60;;
15063;SDS011;7631;52.088;5.088;2023-01-06T05:00:10;1.57;;;1.30;;
15063;SDS011;7631;52.088;5.088;2023-01-06T05:02:35;1.90;;;1.60;;
15063;SDS011;7631;52.088;5.088;2023-01-06T05:05:01;2.50;;;1.30;;
15063;SDS011;7631;52.088;5.088;2023-01-06T05:07:26;1.70;;;1.30;;
15063;SDS011;7631;52.088;5.088;2023-01-06T05:09:51;1.37;;;1.20;;
15063;SDS011;7631;52.088;5.088;2023-01-06T05:12:16;1.83;;;1.50;;
15063;SDS011;7631;52.088;5.088;2023-01-06T05:14:41;1.77;;;1.20;;
15063;SDS011;7631;52.088;5.088;2023-01-06T05:17:06;1.77;;;1.20;;
15063;SDS011;7631;52.088;5.088;2023-01-06T05:19:32;1.33;;;1.10;;
15063;SDS011;7631;52.088;5.088;2023-01-06T05:21:58;2.47;;;1.17;;
15063;SDS011;7631;52.088;5.088;2023-01-06T05:24:23;1.37;;;1.27;;
15063;SDS011;7631;52.088;5.088;2023-01-06T05:26:48;3.07;;;1.60;;
15063;SDS011;7631;52.088;5.088;2023-01-06T05:29:14;2.27;;;1.60;;
15063;SDS011;7631;52.088;5.088;2023-01-06T05:31:40;1.93;;;1.43;;
15063;SDS011;7631;52.088;5.088;2023-01-06T05:34:05;3.03;;;1.47;;
15063;SDS011;7631;52.088;5.088;2023-01-06T05:36:31;2.40;;;1.50;;
15063;SDS011;7631;52.088;5.088;2023-01-06T05:38:56;1.50;;;1.37;;
15063;SDS011;7631;52.088;5.088;2023-01-06T05:41:21;1.90;;;1.40;;
15063;SDS011;7631;52.088;5.088;2023-01-06T05:43:46;2.33;;;1.47;;
15063;SDS011;7631;52.088;5.088;2023-01-06T05:46:12;2.30;;;1.37;;
15063;SDS011;7631;52.088;5.088;2023-01-06T05:48:37;2.27;;;1.50;;
15063;SDS011;7631;52.088;5.088;2023-01-06T05:51:04;1.30;;;1.20;;
15063;SDS011;7631;52.088;5.088;2023-01-06T05:53:30;1.60;;;1.40;;
15063;SDS011;7631;52.088;5.088;2023-01-06T05:55:59;1.97;;;1.33;;
15063;SDS011;7631;52.088;5.088;2023-01-06T05:58:25;1.93;;;1.50;;
15063;SDS011;7631;52.088;5.088;2023-01-06T06:00:50;2.37;;;1.37;;
15063;SDS011;7631;52.088;5.088;2023-01-06T06:03:15;1.70;;;1.37;;
15063;SDS011;7631;52.088;5.088;2023-01-06T06:05:40;2.33;;;1.50;;
15063;SDS011;7631;52.088;5.088;2023-01-06T06:08:06;1.40;;;1.30;;
15063;SDS011;7631;52.088;5.088;2023-01-06T06:10:31;2.03;;;1.33;;
15063;SDS011;7631;52.088;5.088;2023-01-06T06:12:56;1.60;;;1.40;;
15063;SDS011;7631;52.088;5.088;2023-01-06T06:15:21;1.67;;;1.30;;
15063;SDS011;7631;52.088;5.088;2023-01-06T06:17:46;1.57;;;1.33;;
15063;SDS011;7631;52.088;5.088;2023-01-06T06:20:12;1.80;;;1.30;;
15063;SDS011;7631;52.088;5.088;2023-01-06T06:22:37;1.80;;;1.40;;
15063;SDS011;7631;52.088;5.088;2023-01-06T06:25:02;1.77;;;1.40;;
15063;SDS011;7631;52.088;5.088;2023-01-06T06:27:27;1.70;;;1.40;;
15063;SDS011;7631;52.088;5.088;2023-01-06T06:29:52;1.40;;;1.20;;
15063;SDS011;7631;52.088;5.088;2023-01-06T06:32:18;1.73;;;1.60;;
15063;SDS011;7631;52.088;5.088;2023-01-06T06:34:43;1.50;;;1.40;;
15063;SDS011;7631;52.088;5.088;2023-01-06T06:37:08;1.90;;;1.30;;
15063;SDS011;7631;52.088;5.088;2023-01-06T06:39:33;2.03;;;1.83;;
15063;SDS011;7631;52.088;5.088;2023-01-06T06:41:58;2.77;;;1.30;;
15063;SDS011;7631;52.088;5.088;2023-01-06T06:44:24;1.93;;;1.40;;
15063;SDS011;7631;52.088;5.088;2023-01-06T06:46:49;2.53;;;1.40;;
15063;SDS011;7631;52.088;5.088;2023-01-06T06:49:14;1.97;;;1.40;;
15063;SDS011;7631;52.088;5.088;2023-01-06T06:51:39;2.23;;;1.60;;
15063;SDS011;7631;52.088;5.088;2023-01-06T06:54:04;1.63;;;1.40;;
15063;SDS011;7631;52.088;5.088;2023-01-06T06:56:30;1.50;;;1.40;;
15063;SDS011;7631;52.088;5.088;2023-01-06T06:58:55;1.73;;;1.63;;
15063;SDS011;7631;52.088;5.088;2023-01-06T07:01:20;2.03;;;1.83;;
15063;SDS011;7631;52.088;5.088;2023-01-06T07:03:46;1.93;;;1.60;;
15063;SDS011;7631;52.088;5.088;2023-01-06T07:06:12;1.70;;;1.60;;
15063;SDS011;7631;52.088;5.088;2023-01-06T07:08:38;2.00;;;1.70;;
15063;SDS011;7631;52.088;5.088;2023-01-06T07:11:03;1.87;;;1.77;;
15063;SDS011;7631;52.088;5.088;2023-01-06T07:13:29;2.10;;;1.90;;
15063;SDS011;7631;52.088;5.088;2023-01-06T07:15:54;1.80;;;1.70;;
15063;SDS011;7631;52.088;5.088;2023-01-06T07:18:19;3.10;;;1.87;;
15063;SDS011;7631;52.088;5.088;2023-01-06T07:20:48;2.07;;;1.60;;
15063;SDS011;7631;52.088;5.088;2023-01-06T07:23:14;1.80;;;1.60;;
15063;SDS011;7631;52.088;5.088;2023-01-06T07:25:39;2.13;;;2.00;;
15063;SDS011;7631;52.088;5.088;2023-01-06T07:28:04;1.80;;;1.70;;
15063;SDS011;7631;52.088;5.088;2023-01-06T07:30:31;1.97;;;1.73;;
15063;SDS011;7631;52.088;5.088;2023-01-06T07:32:57;2.50;;;1.90;;
15063;SDS011;7631;52.088;5.088;2023-01-06T07:35:22;1.90;;;1.80;;
15063;SDS011;7631;52.088;5.088;2023-01-06T07:37:47;1.90;;;1.80;;
15063;SDS011;7631;52.088;5.088;2023-01-06T07:40:12;2.63;;;2.10;;
15063;SDS011;7631;52.088;5.088;2023-01-06T07:42:38;2.30;;;2.10;;
15063;SDS011;7631;52.088;5.088;2023-01-06T07:45:03;1.70;;;1.60;;
15063;SDS011;7631;52.088;5.088;2023-01-06T07:47:29;1.77;;;1.67;;
15063;SDS011;7631;52.088;5.088;2023-01-06T07:49:54;3.00;;;1.90;;
15063;SDS011;7631;52.088;5.088;2023-01-06T07:52:19;1.60;;;1.50;;
15063;SDS011;7631;52.088;5.088;2023-01-06T07:54:45;1.90;;;1.80;;
15063;SDS011;7631;52.088;5.088;2023-01-06T07:57:10;1.90;;;1.70;;
15063;SDS011;7631;52.088;5.088;2023-01-06T07:59:35;2.20;;;2.00;;
15063;SDS011;7631;52.088;5.088;2023-01-06T08:02:00;2.20;;;1.87;;
15063;SDS011;7631;52.088;5.088;2023-01-06T08:04:25;2.10;;;1.90;;
15063;SDS011;7631;52.088;5.088;2023-01-06T08:06:51;2.10;;;1.90;;
15063;SDS011;7631;52.088;5.088;2023-01-06T08:09:16;2.03;;;1.73;;
15063;SDS011;7631;52.088;5.088;2023-01-06T08:11:41;2.23;;;2.03;;
15063;SDS011;7631;52.088;5.088;2023-01-06T08:14:06;2.50;;;1.97;;
15063;SDS011;7631;52.088;5.088;2023-01-06T08:16:31;2.43;;;2.00;;
15063;SDS011;7631;52.088;5.088;2023-01-06T08:18:57;3.73;;;1.83;;
15063;SDS011;7631;52.088;5.088;2023-01-06T08:21:22;2.43;;;2.00;;
15063;SDS011;7631;52.088;5.088;2023-01-06T08:23:47;2.40;;;1.80;;
15063;SDS011;7631;52.088;5.088;2023-01-06T08:26:13;2.40;;;1.97;;
15063;SDS011;7631;52.088;5.088;2023-01-06T08:28:40;2.13;;;1.93;;
15063;SDS011;7631;52.088;5.088;2023-01-06T08:31:08;2.10;;;1.90;;
15063;SDS011;7631;52.088;5.088;2023-01-06T08:33:34;2.97;;;1.97;;
15063;SDS011;7631;52.088;5.088;2023-01-06T08:36:00;2.50;;;2.03;;
15063;SDS011;7631;52.088;5.088;2023-01-06T08:38:26;2.80;;;2.23;;
15063;SDS011;7631;52.088;5.088;2023-01-06T08:40:51;2.83;;;2.00;;
15063;SDS011;7631;52.088;5.088;2023-01-06T08:43:17;2.97;;;1.87;;
15063;SDS011;7631;52.088;5.088;2023-01-06T08:45:42;1.70;;;1.60;;
15063;SDS011;7631;52.088;5.088;2023-01-06T08:48:07;2.50;;;1.80;;
15063;SDS011;7631;52.088;5.088;2023-01-06T08:50:32;2.00;;;1.70;;
15063;SDS011;7631;52.088;5.088;2023-01-06T08:52:58;2.33;;;1.67;;
15063;SDS011;7631;52.088;5.088;2023-01-06T08:55:23;1.93;;;1.67;;
15063;SDS011;7631;52.088;5.088;2023-01-06T08:57:48;3.53;;;1.70;;
15063;SDS011;7631;52.088;5.088;2023-01-06T09:00:13;2.60;;;1.50;;
15063;SDS011;7631;52.088;5.088;2023-01-06T09:02:39;3.33;;;1.73;;
15063;SDS011;7631;52.088;5.088;2023-01-06T09:05:04;3.73;;;1.90;;
15063;SDS011;7631;52.088;5.088;2023-01-06T09:07:29;2.63;;;1.67;;
15063;SDS011;7631;52.088;5.088;2023-01-06T09:09:55;3.43;;;1.80;;
15063;SDS011;7631;52.088;5.088;2023-01-06T09:12:20;4.00;;;1.83;;
15063;SDS011;7631;52.088;5.088;2023-01-06T09:14:45;2.33;;;1.80;;
15063;SDS011;7631;52.088;5.088;2023-01-06T09:17:10;1.87;;;1.77;;
15063;SDS011;7631;52.088;5.088;2023-01-06T09:19:35;1.63;;;1.50;;
15063;SDS011;7631;52.088;5.088;2023-01-06T09:22:01;2.00;;;1.80;;
15063;SDS011;7631;52.088;5.088;2023-01-06T09:24:26;2.70;;;1.80;;
15063;SDS011;7631;52.088;5.088;2023-01-06T09:26:51;1.87;;;1.63;;
15063;SDS011;7631;52.088;5.088;2023-01-06T09:29:16;3.73;;;1.70;;
15063;SDS011;7631;52.088;5.088;2023-01-06T09:31:41;3.27;;;1.93;;
15063;SDS011;7631;52.088;5.088;2023-01-06T09:34:07;3.73;;;1.80;;
15063;SDS011;7631;52.088;5.088;2023-01-06T09:36:33;2.87;;;1.70;;
15063;SDS011;7631;52.088;5.088;2023-01-06T09:38:58;4.23;;;2.20;;
15063;SDS011;7631;52.088;5.088;2023-01-06T09:46:34;2.60;;;1.90;;
15063;SDS011;7631;52.088;5.088;2023-01-06T09:49:06;3.20;;;1.50;;
15063;SDS011;7631;52.088;5.088;2023-01-06T09:51:32;3.10;;;1.50;;
15063;SDS011;7631;52.088;5.088;2023-01-06T09:54:12;2.57;;;1.73;;
15063;SDS011;7631;52.088;5.088;2023-01-06T09:56:40;1.77;;;1.53;;
15063;SDS011;7631;52.088;5.088;2023-01-06T10:01:50;2.70;;;1.40;;
15063;SDS011;7631;52.088;5.088;2023-01-06T10:04:26;2.20;;;1.33;;
15063;SDS011;7631;52.088;5.088;2023-01-06T10:06:54;2.20;;;1.30;;
15063;SDS011;7631;52.088;5.088;2023-01-06T10:27:24;2.70;;;1.17;;
15063;SDS011;7631;52.088;5.088;2023-01-06T10:29:49;3.35;;;1.50;;
15063;SDS011;7631;52.088;5.088;2023-01-06T10:32:16;4.97;;;1.87;;
15063;SDS011;7631;52.088;5.088;2023-01-06T10:34:43;3.23;;;1.50;;
15063;SDS011;7631;52.088;5.088;2023-01-06T10:39:34;2.87;;;1.40;;
15063;SDS011;7631;52.088;5.088;2023-01-06T10:42:03;3.00;;;1.60;;
15063;SDS011;7631;52.088;5.088;2023-01-06T10:44:49;6.87;;;1.40;;
15063;SDS011;7631;52.088;5.088;2023-01-06T10:47:19;5.33;;;1.10;;
15063;SDS011;7631;52.088;5.088;2023-01-06T10:49:46;4.17;;;1.40;;
15063;SDS011;7631;52.088;5.088;2023-01-06T10:52:12;4.87;;;1.40;;
15063;SDS011;7631;52.088;5.088;2023-01-06T10:54:38;5.63;;;1.37;;
15063;SDS011;7631;52.088;5.088;2023-01-06T10:57:08;2.77;;;1.13;;
15063;SDS011;7631;52.088;5.088;2023-01-06T10:59:49;5.87;;;1.63;;
15063;SDS011;7631;52.088;5.088;2023-01-06T11:02:22;3.87;;;1.23;;
15063;SDS011;7631;52.088;5.088;2023-01-06T11:04:51;3.23;;;0.90;;
15063;SDS011;7631;52.088;5.088;2023-01-06T11:07:16;5.00;;;1.37;;
15063;SDS011;7631;52.088;5.088;2023-01-06T11:09:42;3.37;;;1.33;;
15063;SDS011;7631;52.088;5.088;2023-01-06T11:12:09;2.83;;;1.10;;
15063;SDS011;7631;52.088;5.088;2023-01-06T11:14:35;3.83;;;1.27;;
15063;SDS011;7631;52.088;5.088;2023-01-06T11:17:01;2.57;;;1.30;;
15063;SDS011;7631;52.088;5.088;2023-01-06T11:19:32;5.27;;;1.33;;
15063;SDS011;7631;52.088;5.088;2023-01-06T11:21:58;3.30;;;1.10;;
15063;SDS011;7631;52.088;5.088;2023-01-06T11:24:24;4.33;;;1.30;;
15063;SDS011;7631;52.088;5.088;2023-01-06T11:26:57;3.47;;;1.17;;
15063;SDS011;7631;52.088;5.088;2023-01-06T11:29:30;2.53;;;1.57;;
15063;SDS011;7631;52.088;5.088;2023-01-06T11:31:56;2.10;;;1.07;;
15063;SDS011;7631;52.088;5.088;2023-01-06T11:34:22;4.00;;;1.33;;
15063;SDS011;7631;52.088;5.088;2023-01-06T11:36:48;2.40;;;1.03;;
15063;SDS011;7631;52.088;5.088;2023-01-06T11:39:22;2.93;;;1.10;;
15063;SDS011;7631;52.088;5.088;2023-01-06T11:41:48;4.03;;;1.10;;
15063;SDS011;7631;52.088;5.088;2023-01-06T11:44:28;3.10;;;1.20;;
15063;SDS011;7631;52.088;5.088;2023-01-06T11:47:04;4.27;;;1.10;;
15063;SDS011;7631;52.088;5.088;2023-01-06T11:49:36;2.90;;;0.90;;
15063;SDS011;7631;52.088;5.088;2023-01-06T11:52:18;3.53;;;1.20;;
15063;SDS011;7631;52.088;5.088;2023-01-06T11:54:44;3.23;;;1.00;;
15063;SDS011;7631;52.088;5.088;2023-01-06T12:02:25;2.87;;;0.93;;
15063;SDS011;7631;52.088;5.088;2023-01-06T12:04:52;2.70;;;1.00;;
15063;SDS011;7631;52.088;5.088;2023-01-06T12:09:44;5.47;;;1.27;;
15063;SDS011;7631;52.088;5.088;2023-01-06T12:12:15;2.13;;;0.87;;
15063;SDS011;7631;52.088;5.088;2023-01-06T12:14:42;2.53;;;0.93;;
15063;SDS011;7631;52.088;5.088;2023-01-06T12:19:48;3.13;;;0.80;;
15063;SDS011;7631;52.088;5.088;2023-01-06T12:25:00;3.43;;;0.83;;
15063;SDS011;7631;52.088;5.088;2023-01-06T12:27:48;2.40;;;0.93;;
15063;SDS011;7631;52.088;5.088;2023-01-06T12:30:16;2.17;;;0.80;;
15063;SDS011;7631;52.088;5.088;2023-01-06T12:32:44;2.57;;;1.00;;
15063;SDS011;7631;52.088;5.088;2023-01-06T12:35:13;1.73;;;0.90;;
15063;SDS011;7631;52.088;5.088;2023-01-06T12:37:49;3.67;;;1.23;;
15063;SDS011;7631;52.088;5.088;2023-01-06T12:40:21;2.67;;;0.80;;
15063;SDS011;7631;52.088;5.088;2023-01-06T12:45:31;2.63;;;0.70;;
15063;SDS011;7631;52.088;5.088;2023-01-06T12:47:57;1.97;;;0.87;;
15063;SDS011;7631;52.088;5.088;2023-01-06T12:55:38;1.60;;;0.83;;
15063;SDS011;7631;52.088;5.088;2023-01-06T12:58:07;2.23;;;1.07;;
15063;SDS011;7631;52.088;5.088;2023-01-06T13:03:45;3.73;;;0.90;;
15063;SDS011;7631;52.088;5.088;2023-01-06T13:08:32;8.07;;;2.73;;
15063;SDS011;7631;52.088;5.088;2023-01-06T13:18:57;7.43;;;1.60;;
15063;SDS011;7631;52.088;5.088;2023-01-06T13:21:23;5.03;;;1.20;;
15063;SDS011;7631;52.088;5.088;2023-01-06T13:23:52;4.23;;;1.53;;
15063;SDS011;7631;52.088;5.088;2023-01-06T13:34:17;4.43;;;1.40;;
15063;SDS011;7631;52.088;5.088;2023-01-06T13:39:17;4.10;;;1.47;;
15063;SDS011;7631;52.088;5.088;2023-01-06T13:41:44;3.47;;;1.63;;
15063;SDS011;7631;52.088;5.088;2023-01-06T13:44:16;4.20;;;1.40;;
15063;SDS011;7631;52.088;5.088;2023-01-06T13:46:43;3.30;;;1.60;;
15063;SDS011;7631;52.088;5.088;2023-01-06T13:49:09;4.57;;;1.43;;
15063;SDS011;7631;52.088;5.088;2023-01-06T13:51:36;2.93;;;1.20;;
15063;SDS011;7631;52.088;5.088;2023-01-06T13:54:02;2.87;;;1.40;;
15063;SDS011;7631;52.088;5.088;2023-01-06T13:56:28;4.53;;;1.63;;
15063;SDS011;7631;52.088;5.088;2023-01-06T13:59:15;2.27;;;1.03;;
15063;SDS011;7631;52.088;5.088;2023-01-06T14:01:41;2.47;;;1.10;;
15063;SDS011;7631;52.088;5.088;2023-01-06T14:06:50;2.27;;;1.10;;
15063;SDS011;7631;52.088;5.088;2023-01-06T14:09:16;2.97;;;1.20;;
15063;SDS011;7631;52.088;5.088;2023-01-06T14:11:42;3.13;;;1.30;;
15063;SDS011;7631;52.088;5.088;2023-01-06T14:14:19;3.57;;;1.33;;
15063;SDS011;7631;52.088;5.088;2023-01-06T14:16:49;3.63;;;1.30;;
15063;SDS011;7631;52.088;5.088;2023-01-06T14:19:15;3.20;;;1.00;;
15063;SDS011;7631;52.088;5.088;2023-01-06T14:21:43;3.50;;;1.13;;
15063;SDS011;7631;52.088;5.088;2023-01-06T14:24:19;1.93;;;1.10;;
15063;SDS011;7631;52.088;5.088;2023-01-06T14:31:54;2.77;;;1.13;;
15063;SDS011;7631;52.088;5.088;2023-01-06T14:34:19;2.70;;;0.90;;
15063;SDS011;7631;52.088;5.088;2023-01-06T14:36:46;1.83;;;1.20;;
15063;SDS011;7631;52.088;5.088;2023-01-06T14:39:17;2.67;;;1.37;;
15063;SDS011;7631;52.088;5.088;2023-01-06T14:41:46;2.47;;;1.20;;
15063;SDS011;7631;52.088;5.088;2023-01-06T14:44:14;2.37;;;1.20;;
15063;SDS011;7631;52.088;5.088;2023-01-06T14:46:40;3.07;;;1.30;;
15063;SDS011;7631;52.088;5.088;2023-01-06T14:49:18;2.80;;;1.20;;
15063;SDS011;7631;52.088;5.088;2023-01-06T14:51:47;3.10;;;1.10;;
15063;SDS011;7631;52.088;5.088;2023-01-06T14:54:24;2.13;;;1.17;;
15063;SDS011;7631;52.088;5.088;2023-01-06T14:56:51;2.53;;;1.03;;
15063;SDS011;7631;52.088;5.088;2023-01-06T14:59:17;2.13;;;0.90;;
15063;SDS011;7631;52.088;5.088;2023-01-06T15:01:43;1.67;;;0.90;;
15063;SDS011;7631;52.088;5.088;2023-01-06T15:04:19;2.00;;;1.07;;
15063;SDS011;7631;52.088;5.088;2023-01-06T15:06:54;1.67;;;0.90;;
15063;SDS011;7631;52.088;5.088;2023-01-06T15:09:19;1.50;;;0.90;;
15063;SDS011;7631;52.088;5.088;2023-01-06T15:11:44;1.77;;;1.07;;
15063;SDS011;7631;52.088;5.088;2023-01-06T15:17:10;1.83;;;0.90;;
15063;SDS011;7631;52.088;5.088;2023-01-06T15:19:36;3.07;;;0.93;;
15063;SDS011;7631;52.088;5.088;2023-01-06T15:22:04;2.97;;;1.10;;
15063;SDS011;7631;52.088;5.088;2023-01-06T15:24:31;3.50;;;1.30;;
15063;SDS011;7631;52.088;5.088;2023-01-06T15:27:03;1.47;;;0.83;;
15063;SDS011;7631;52.088;5.088;2023-01-06T15:29:29;2.30;;;0.90;;
15063;SDS011;7631;52.088;5.088;2023-01-06T15:31:54;3.10;;;0.83;;
15063;SDS011;7631;52.088;5.088;2023-01-06T15:34:21;2.80;;;1.20;;
15063;SDS011;7631;52.088;5.088;2023-01-06T15:36:49;1.90;;;0.90;;
15063;SDS011;7631;52.088;5.088;2023-01-06T15:39:17;1.40;;;0.70;;
15063;SDS011;7631;52.088;5.088;2023-01-06T15:41:45;2.20;;;1.00;;
15063;SDS011;7631;52.088;5.088;2023-01-06T15:46:45;1.13;;;0.80;;
15063;SDS011;7631;52.088;5.088;2023-01-06T15:49:34;1.50;;;0.90;;
15063;SDS011;7631;52.088;5.088;2023-01-06T15:52:02;1.57;;;1.00;;
15063;SDS011;7631;52.088;5.088;2023-01-06T15:54:27;1.33;;;0.90;;
15063;SDS011;7631;52.088;5.088;2023-01-06T15:56:53;2.93;;;1.03;;
15063;SDS011;7631;52.088;5.088;2023-01-06T15:59:18;1.77;;;1.10;;
15063;SDS011;7631;52.088;5.088;2023-01-06T16:01:48;1.43;;;1.00;;
15063;SDS011;7631;52.088;5.088;2023-01-06T16:04:14;1.83;;;0.87;;
15063;SDS011;7631;52.088;5.088;2023-01-06T16:06:40;2.67;;;1.13;;
15063;SDS011;7631;52.088;5.088;2023-01-06T16:11:56;1.60;;;0.90;;
15063;SDS011;7631;52.088;5.088;2023-01-06T16:14:32;2.10;;;1.10;;
15063;SDS011;7631;52.088;5.088;2023-01-06T16:17:59;2.83;;;1.00;;
15063;SDS011;7631;52.088;5.088;2023-01-06T16:19:58;1.60;;;0.90;;
15063;SDS011;7631;52.088;5.088;2023-01-06T16:27:48;2.47;;;1.10;;
15063;SDS011;7631;52.088;5.088;2023-01-06T16:30:26;1.00;;;0.87;;
15063;SDS011;7631;52.088;5.088;2023-01-06T16:32:55;2.90;;;1.10;;
15063;SDS011;7631;52.088;5.088;2023-01-06T16:35:21;1.90;;;1.07;;
15063;SDS011;7631;52.088;5.088;2023-01-06T16:37:47;1.73;;;1.07;;
15063;SDS011;7631;52.088;5.088;2023-01-06T16:40:13;1.40;;;0.90;;
15063;SDS011;7631;52.088;5.088;2023-01-06T16:42:39;1.17;;;0.87;;
15063;SDS011;7631;52.088;5.088;2023-01-06T16:45:11;3.30;;;0.90;;
15063;SDS011;7631;52.088;5.088;2023-01-06T16:47:38;1.50;;;0.90;;
15063;SDS011;7631;52.088;5.088;2023-01-06T16:50:25;1.20;;;1.00;;
15063;SDS011;7631;52.088;5.088;2023-01-06T16:52:59;2.17;;;1.03;;
15063;SDS011;7631;52.088;5.088;2023-01-06T16:55:24;1.67;;;1.10;;
15063;SDS011;7631;52.088;5.088;2023-01-06T16:57:49;1.93;;;1.00;;
15063;SDS011;7631;52.088;5.088;2023-01-06T17:00:16;1.93;;;0.90;;
15063;SDS011;7631;52.088;5.088;2023-01-06T17:02:42;3.13;;;1.23;;
15063;SDS011;7631;52.088;5.088;2023-01-06T17:05:26;2.27;;;1.30;;
15063;SDS011;7631;52.088;5.088;2023-01-06T17:07:54;2.03;;;1.30;;
15063;SDS011;7631;52.088;5.088;2023-01-06T17:10:21;1.93;;;1.40;;
15063;SDS011;7631;52.088;5.088;2023-01-06T17:12:52;1.20;;;1.00;;
15063;SDS011;7631;52.088;5.088;2023-01-06T17:15:36;1.80;;;1.17;;